<?xml version='1.0' encoding='UTF-8'?>
<gpx xmlns="http://www.topografix.com/GPX/1/1" creator="www.balnam.be" version="1.1" xmlns:xsi="http://www.w3.org/2001/XMLSchema-instance" xsi:schemaLocation="http://www.topografix.com/GPX/1/1 http://www.topografix.com/GPX/1/1/gpx.xsd">
<trk>
<name>hecee109</name>
<cmt>v</cmt>
<desc>Ecaussinnes-d'Enghien Sentier n°109 Sentier 109</desc>
<link href="https://chemins.be/ecaussinnesdenghien/sentier/109"/><trkseg>
<trkpt lat="50.563043" lon="4.145588"><time>2026-05-03T00:34:54Z</time></trkpt>
<trkpt lat="50.562989" lon="4.145504"><time>2026-05-03T00:44:54Z</time></trkpt>
<trkpt lat="50.562069" lon="4.144210"><time>2026-05-03T00:54:54Z</time></trkpt>
<trkpt lat="50.561826" lon="4.143773"><time>2026-05-03T01:04:54Z</time></trkpt>
<trkpt lat="50.561564" lon="4.143168"><time>2026-05-03T01:14:54Z</time></trkpt>
<trkpt lat="50.561797" lon="4.142785"><time>2026-05-03T01:24:54Z</time></trkpt>
<trkpt lat="50.561534" lon="4.141940"><time>2026-05-03T01:34:54Z</time></trkpt>
<trkpt lat="50.561309" lon="4.141517"><time>2026-05-03T01:44:54Z</time></trkpt>
<trkpt lat="50.561101" lon="4.140940"><time>2026-05-03T01:54:54Z</time></trkpt>
<trkpt lat="50.561235" lon="4.140657"><time>2026-05-03T02:04:54Z</time></trkpt>
<trkpt lat="50.560731" lon="4.140052"><time>2026-05-03T02:14:54Z</time></trkpt>
<trkpt lat="50.560360" lon="4.139010"><time>2026-05-03T02:24:54Z</time></trkpt>
<trkpt lat="50.559216" lon="4.137900"><time>2026-05-03T02:34:54Z</time></trkpt>
<trkpt lat="50.559063" lon="4.138028"><time>2026-05-03T02:44:54Z</time></trkpt>
<trkpt lat="50.558748" lon="4.137677"><time>2026-05-03T02:54:54Z</time></trkpt>
<trkpt lat="50.558099" lon="4.136565"><time>2026-05-03T03:04:54Z</time></trkpt>
<trkpt lat="50.558089" lon="4.136071"><time>2026-05-03T03:14:54Z</time></trkpt>
<trkpt lat="50.558007" lon="4.135705"><time>2026-05-03T03:24:54Z</time></trkpt>
<trkpt lat="50.557782" lon="4.135805"><time>2026-05-03T03:34:54Z</time></trkpt>
<trkpt lat="50.557620" lon="4.135565"><time>2026-05-03T03:44:54Z</time></trkpt>
<trkpt lat="50.557454" lon="4.135644"><time>2026-05-03T03:54:54Z</time></trkpt>
</trkseg></trk>
<trk>
<name>hecee109</name>
<cmt>q</cmt>
<desc>Ecaussinnes-d'Enghien Sentier n°109 Sentier 109</desc>
<link href="https://chemins.be/ecaussinnesdenghien/sentier/109"/><trkseg>
<trkpt lat="50.557454" lon="4.135644"><time>2026-05-03T03:54:54Z</time></trkpt>
<trkpt lat="50.556436" lon="4.134114"><time>2026-05-03T04:04:54Z</time></trkpt>
<trkpt lat="50.556040" lon="4.133037"><time>2026-05-03T04:14:54Z</time></trkpt>
<trkpt lat="50.553919" lon="4.128563"><time>2026-05-03T04:24:54Z</time></trkpt>
</trkseg>
</trk>
</gpx>